createdAt,value
2023-01-22T00:00:41.995Z,2.69
2023-01-22T00:01:44.516Z,2.73
2023-01-22T00:02:49.337Z,2.77
2023-01-22T00:03:54.049Z,2.78
2023-01-22T00:04:57.211Z,2.81
2023-01-22T00:05:59.839Z,2.77
2023-01-22T00:07:04.755Z,2.87
2023-01-22T00:08:07.328Z,2.86
2023-01-22T00:09:10.010Z,2.85
2023-01-22T00:10:13.249Z,2.92
2023-01-22T00:11:17.120Z,2.94
2023-01-22T00:12:19.539Z,2.94
2023-01-22T00:13:24.562Z,2.96
2023-01-22T00:14:27.189Z,2.96
2023-01-22T00:15:29.877Z,2.85
2023-01-22T00:16:32.482Z,2.95
2023-01-22T00:17:35.145Z,2.97
2023-01-22T00:18:37.745Z,2.96
2023-01-22T00:19:42.833Z,2.88
2023-01-22T00:20:49.797Z,2.88
2023-01-22T00:21:54.632Z,2.90
2023-01-22T00:22:57.210Z,2.88
2023-01-22T00:24:01.367Z,2.93
2023-01-22T00:25:05.665Z,2.92
2023-01-22T00:26:12.117Z,3.01
2023-01-22T00:27:16.761Z,2.94
2023-01-22T00:28:19.404Z,2.97
2023-01-22T00:29:22.960Z,2.92
2023-01-22T00:30:25.585Z,2.90
2023-01-22T00:31:28.118Z,2.99
2023-01-22T00:32:30.677Z,2.98
2023-01-22T00:33:34.155Z,3.07
2023-01-22T00:34:37.255Z,2.96
2023-01-22T00:35:39.984Z,2.94
2023-01-22T00:36:42.561Z,3.01
2023-01-22T00:37:47.711Z,3.08
2023-01-22T00:38:51.578Z,3.13
2023-01-22T00:39:54.079Z,3.15
2023-01-22T00:40:56.782Z,3.09
2023-01-22T00:41:59.307Z,3.13
2023-01-22T00:43:01.770Z,3.12
2023-01-22T00:44:04.326Z,3.16
2023-01-22T00:45:07.530Z,3.08
2023-01-22T00:46:12.928Z,3.07
2023-01-22T00:47:17.405Z,3.14
2023-01-22T00:48:20.025Z,3.14
2023-01-22T00:49:25.498Z,3.17
2023-01-22T00:50:28.558Z,3.10
2023-01-22T00:51:33.557Z,3.06
2023-01-22T00:52:37.974Z,3.22
2023-01-22T00:53:41.787Z,3.18
2023-01-22T00:54:45.909Z,3.19
2023-01-22T00:55:56.616Z,3.17
2023-01-22T00:56:59.685Z,3.24
2023-01-22T00:58:05.110Z,3.16
2023-01-22T00:59:10.750Z,3.20
2023-01-22T01:00:18.861Z,3.28
2023-01-22T01:01:23.771Z,3.21
2023-01-22T01:02:26.319Z,3.16
2023-01-22T01:03:32.927Z,3.18
2023-01-22T01:04:35.792Z,3.26
2023-01-22T01:05:38.295Z,3.25
2023-01-22T01:06:41.279Z,3.31
2023-01-22T01:07:52.820Z,3.35
2023-01-22T01:08:57.472Z,3.30
2023-01-22T01:10:00.081Z,3.37
2023-01-22T01:11:13.603Z,3.38
2023-01-22T01:12:16.392Z,3.38
2023-01-22T01:13:19.611Z,3.38
2023-01-22T01:14:22.315Z,3.37
2023-01-22T01:15:25.005Z,3.29
2023-01-22T01:16:32.743Z,3.40
2023-01-22T01:17:36.357Z,3.38
2023-01-22T01:18:39.236Z,3.36
2023-01-22T01:19:50.405Z,3.34
2023-01-22T01:20:57.150Z,3.30
2023-01-22T01:22:04.281Z,3.36
2023-01-22T01:23:10.415Z,3.39
2023-01-22T01:24:13.354Z,3.47
2023-01-22T01:25:15.996Z,3.43
2023-01-22T01:26:18.487Z,3.45
2023-01-22T01:27:21.554Z,3.50
2023-01-22T01:28:25.176Z,3.46
2023-01-22T01:29:28.125Z,3.51
2023-01-22T01:30:30.633Z,3.55
2023-01-22T01:31:33.352Z,3.54
2023-01-22T01:32:35.881Z,3.47
2023-01-22T01:33:38.694Z,3.40
2023-01-22T01:34:41.220Z,3.49
2023-01-22T01:35:43.675Z,3.45
2023-01-22T01:36:49.588Z,3.51
2023-01-22T01:37:53.748Z,3.51
2023-01-22T01:38:56.765Z,3.56
2023-01-22T01:39:59.341Z,3.56
2023-01-22T01:41:02.293Z,3.51
2023-01-22T01:42:04.799Z,3.46
2023-01-22T01:43:16.914Z,3.47
2023-01-22T01:44:21.837Z,3.46
2023-01-22T01:45:30.441Z,3.54
2023-01-22T01:46:35.423Z,3.52
2023-01-22T01:47:38.054Z,3.36
2023-01-22T01:48:46.999Z,3.35
2023-01-22T01:49:56.578Z,3.41
2023-01-22T01:51:05.273Z,3.33
2023-01-22T01:52:12.970Z,3.33
2023-01-22T01:53:15.809Z,3.31
2023-01-22T01:54:18.450Z,3.19
2023-01-22T01:55:27.092Z,3.18
2023-01-22T01:56:39.701Z,3.28
2023-01-22T01:57:43.725Z,3.25
2023-01-22T01:58:54.869Z,3.18
2023-01-22T01:59:59.224Z,3.09
2023-01-22T02:01:05.962Z,3.07
2023-01-22T02:02:09.085Z,3.04
2023-01-22T02:03:11.952Z,3.02
2023-01-22T02:04:15.474Z,3.06
2023-01-22T02:05:20.787Z,3.01
2023-01-22T02:06:23.735Z,3.06
2023-01-22T02:07:26.195Z,3.06
2023-01-22T02:08:28.841Z,2.98
2023-01-22T02:09:32.685Z,2.96
2023-01-22T02:10:42.622Z,2.98
2023-01-22T02:11:45.819Z,2.92
2023-01-22T02:12:48.173Z,2.85
2023-01-22T02:14:00.095Z,2.78
2023-01-22T02:15:04.261Z,2.75
2023-01-22T02:16:08.074Z,2.81
2023-01-22T02:17:16.814Z,2.67
2023-01-22T02:18:19.506Z,2.77
2023-01-22T02:19:24.239Z,2.70
2023-01-22T02:20:27.639Z,2.73
2023-01-22T02:21:33.676Z,2.78
2023-01-22T02:22:39.703Z,2.67
2023-01-22T02:23:42.234Z,2.66
2023-01-22T02:24:44.723Z,2.66
2023-01-22T02:25:47.346Z,2.63
2023-01-22T02:26:49.878Z,2.60
2023-01-22T02:27:55.564Z,2.66
2023-01-22T02:28:58.997Z,2.65
2023-01-22T02:30:06.149Z,2.65
2023-01-22T02:31:10.710Z,2.57
2023-01-22T02:32:13.988Z,2.56
2023-01-22T02:33:16.989Z,2.57
2023-01-22T02:34:24.663Z,2.55
2023-01-22T02:35:27.567Z,2.53
2023-01-22T02:36:31.672Z,2.53
2023-01-22T02:37:34.175Z,2.60
2023-01-22T02:38:37.220Z,2.59
2023-01-22T02:39:40.009Z,2.58
2023-01-22T02:40:49.494Z,2.60
2023-01-22T02:41:54.915Z,2.66
2023-01-22T02:42:57.810Z,2.61
2023-01-22T02:44:00.534Z,2.69
2023-01-22T02:45:05.163Z,2.70
2023-01-22T02:46:07.773Z,2.67
2023-01-22T02:47:10.482Z,2.69
2023-01-22T02:48:22.289Z,2.72
2023-01-22T02:49:24.898Z,2.72
2023-01-22T02:50:27.456Z,2.71
2023-01-22T02:51:30.067Z,2.75
2023-01-22T02:52:32.993Z,2.74
2023-01-22T02:53:35.723Z,2.82
2023-01-22T02:54:38.287Z,2.80
2023-01-22T02:55:41.014Z,2.85
2023-01-22T02:56:44.756Z,2.82
2023-01-22T02:57:48.419Z,2.82
2023-01-22T02:58:52.329Z,2.91
2023-01-22T02:59:55.968Z,2.85
2023-01-22T03:00:58.515Z,2.84
2023-01-22T03:02:01.731Z,2.86
2023-01-22T03:03:17.571Z,2.94
2023-01-22T03:04:24.483Z,2.92
2023-01-22T03:05:26.990Z,3.06
2023-01-22T03:06:30.257Z,2.99
2023-01-22T03:07:47.904Z,3.00
2023-01-22T03:08:53.328Z,3.00
2023-01-22T03:09:56.496Z,2.94
2023-01-22T03:10:59.466Z,2.91
2023-01-22T03:12:09.128Z,2.87
2023-01-22T03:13:39.346Z,2.88
2023-01-22T03:15:03.336Z,2.88
2023-01-22T03:16:24.839Z,2.93
2023-01-22T03:17:46.521Z,2.93
2023-01-22T03:19:09.753Z,2.90
2023-01-22T03:20:33.432Z,2.89
2023-01-22T03:21:45.444Z,2.85
2023-01-22T03:22:47.954Z,2.87
2023-01-22T03:23:54.691Z,2.85
2023-01-22T03:24:58.867Z,2.88
2023-01-22T03:26:04.230Z,2.92
2023-01-22T03:27:07.255Z,2.87
2023-01-22T03:28:16.778Z,2.83
2023-01-22T03:29:24.500Z,2.89
2023-01-22T03:30:27.591Z,2.81
2023-01-22T03:31:31.257Z,2.82
2023-01-22T03:32:33.814Z,2.74
2023-01-22T03:33:36.955Z,2.72
2023-01-22T03:34:42.720Z,2.76
2023-01-22T03:35:45.298Z,2.83
2023-01-22T03:36:53.400Z,2.66
2023-01-22T03:37:56.073Z,2.66
2023-01-22T03:38:58.733Z,2.61
2023-01-22T03:40:01.430Z,2.63
2023-01-22T03:41:14.881Z,2.63
2023-01-22T03:42:19.366Z,2.61
2023-01-22T03:43:22.070Z,2.61
2023-01-22T03:44:24.697Z,2.68
2023-01-22T03:45:29.745Z,2.60
2023-01-22T03:46:32.815Z,2.66
2023-01-22T03:47:35.524Z,2.71
2023-01-22T03:48:52.669Z,2.68
2023-01-22T03:49:55.467Z,2.65
2023-01-22T03:51:03.785Z,2.65
2023-01-22T03:52:06.401Z,2.64
2023-01-22T03:53:09.295Z,2.65
2023-01-22T03:54:13.282Z,2.59
2023-01-22T03:55:16.000Z,2.56
2023-01-22T03:56:21.526Z,2.60
2023-01-22T03:57:28.018Z,2.55
2023-01-22T03:58:32.236Z,2.59
2023-01-22T03:59:34.914Z,2.61
2023-01-22T04:00:37.870Z,2.65
2023-01-22T04:01:42.111Z,2.63
2023-01-22T04:02:44.700Z,2.67
2023-01-22T04:03:55.703Z,2.68
2023-01-22T04:05:01.597Z,2.72
2023-01-22T04:06:05.855Z,2.63
2023-01-22T04:07:11.755Z,2.70
2023-01-22T04:08:15.569Z,2.78
2023-01-22T04:09:20.341Z,2.78
2023-01-22T04:10:24.124Z,2.78
2023-01-22T04:11:26.744Z,2.79
2023-01-22T04:12:29.557Z,2.80
2023-01-22T04:13:33.880Z,2.82
2023-01-22T04:14:36.837Z,2.83
2023-01-22T04:15:39.946Z,2.74
2023-01-22T04:16:59.768Z,2.84
2023-01-22T04:18:23.088Z,2.85
2023-01-22T04:19:40.099Z,2.87
2023-01-22T04:21:24.308Z,2.93
2023-01-22T04:22:29.816Z,2.90
2023-01-22T04:23:32.731Z,2.93
2023-01-22T04:24:36.620Z,2.87
2023-01-22T04:25:40.788Z,2.76
2023-01-22T04:26:43.703Z,2.80
2023-01-22T04:27:51.001Z,2.79
2023-01-22T04:28:56.333Z,2.79
2023-01-22T04:29:59.992Z,2.76
2023-01-22T04:31:04.475Z,2.85
2023-01-22T04:32:28.074Z,2.84
2023-01-22T04:33:50.921Z,2.90
2023-01-22T04:35:01.555Z,2.99
2023-01-22T04:36:34.144Z,3.01
2023-01-22T04:37:36.886Z,2.90
2023-01-22T04:38:42.995Z,2.93
2023-01-22T04:39:45.475Z,2.94
2023-01-22T04:40:54.876Z,2.96
2023-01-22T04:41:58.301Z,3.05
2023-01-22T04:43:06.707Z,3.01
2023-01-22T04:44:09.308Z,3.04
2023-01-22T04:45:14.113Z,3.06
2023-01-22T04:46:17.098Z,3.01
2023-01-22T04:47:20.906Z,3.06
2023-01-22T04:48:24.676Z,2.98
2023-01-22T04:49:27.333Z,2.97
2023-01-22T04:50:33.331Z,2.91
2023-01-22T04:51:39.794Z,2.94
2023-01-22T04:52:42.407Z,2.96
2023-01-22T04:53:45.622Z,2.99
2023-01-22T04:54:52.054Z,2.98
2023-01-22T04:55:54.781Z,2.97
2023-01-22T04:56:57.855Z,2.89
2023-01-22T04:58:01.978Z,2.91
2023-01-22T04:59:04.998Z,2.86
2023-01-22T05:00:09.172Z,2.83
2023-01-22T05:01:12.540Z,2.85
2023-01-22T05:02:15.080Z,2.88
2023-01-22T05:03:18.152Z,2.91
2023-01-22T05:04:21.985Z,2.89
2023-01-22T05:05:27.232Z,2.91
2023-01-22T05:06:31.171Z,2.83
2023-01-22T05:07:34.533Z,2.77
2023-01-22T05:08:37.148Z,2.85
2023-01-22T05:09:39.866Z,2.87
2023-01-22T05:10:42.341Z,2.87
2023-01-22T05:11:47.244Z,2.82
2023-01-22T05:12:50.713Z,2.78
2023-01-22T05:13:54.616Z,2.78
2023-01-22T05:14:57.210Z,2.78
2023-01-22T05:15:59.812Z,2.77
2023-01-22T05:17:02.506Z,2.81
2023-01-22T05:18:05.339Z,2.78
2023-01-22T05:19:11.614Z,2.72
2023-01-22T05:20:14.114Z,2.70
2023-01-22T05:21:16.629Z,2.83
2023-01-22T05:22:19.134Z,2.78
2023-01-22T05:23:23.281Z,2.82
2023-01-22T05:24:25.923Z,2.80
2023-01-22T05:25:29.035Z,2.79
2023-01-22T05:26:33.954Z,2.77
2023-01-22T05:27:41.065Z,2.69
2023-01-22T05:28:49.369Z,2.63
2023-01-22T05:30:04.507Z,2.63
2023-01-22T05:31:30.572Z,2.65
2023-01-22T05:32:38.450Z,2.58
2023-01-22T05:33:42.852Z,2.64
2023-01-22T05:34:47.492Z,2.66
2023-01-22T05:36:00.801Z,2.60
2023-01-22T05:37:08.691Z,2.61
2023-01-22T05:38:11.518Z,2.67
2023-01-22T05:39:16.102Z,2.67
2023-01-22T05:40:21.211Z,2.69
2023-01-22T05:41:24.155Z,2.66
2023-01-22T05:42:28.786Z,2.64
2023-01-22T05:43:32.023Z,2.69
2023-01-22T05:44:41.474Z,2.66
2023-01-22T05:45:44.094Z,2.67
2023-01-22T05:47:04.763Z,2.65
2023-01-22T05:48:16.454Z,2.69
2023-01-22T05:49:28.199Z,2.76
2023-01-22T05:50:32.363Z,2.82
2023-01-22T05:51:44.065Z,2.79
2023-01-22T05:52:46.995Z,2.79
2023-01-22T05:53:49.779Z,2.79
2023-01-22T05:54:52.279Z,2.82
2023-01-22T05:55:54.710Z,2.80
2023-01-22T05:56:57.941Z,2.81
2023-01-22T05:58:01.600Z,2.88
2023-01-22T05:59:04.413Z,2.88
2023-01-22T06:00:08.793Z,2.84
2023-01-22T06:01:18.875Z,2.78
2023-01-22T06:02:25.211Z,2.84
2023-01-22T06:03:29.099Z,2.83
2023-01-22T06:04:32.865Z,2.88
2023-01-22T06:05:37.355Z,2.92
2023-01-22T06:06:43.531Z,2.91
2023-01-22T06:07:45.991Z,2.90
2023-01-22T06:08:52.767Z,2.89
2023-01-22T06:09:57.693Z,2.98
2023-01-22T06:11:13.249Z,2.94
2023-01-22T06:12:19.941Z,2.84
2023-01-22T06:13:22.867Z,2.91
2023-01-22T06:14:31.686Z,2.97
2023-01-22T06:15:35.454Z,2.98
2023-01-22T06:16:51.072Z,3.00
2023-01-22T06:18:14.887Z,3.04
2023-01-22T06:19:17.912Z,3.09
2023-01-22T06:20:26.632Z,2.95
2023-01-22T06:21:29.074Z,3.01
2023-01-22T06:22:32.417Z,2.97
2023-01-22T06:23:37.472Z,2.95
2023-01-22T06:24:41.287Z,3.01
2023-01-22T06:25:45.523Z,2.98
2023-01-22T06:26:55.487Z,3.03
2023-01-22T06:28:05.001Z,3.06
2023-01-22T06:29:08.715Z,3.01
2023-01-22T06:30:12.445Z,2.99
2023-01-22T06:31:15.047Z,3.01
2023-01-22T06:32:17.909Z,3.07
2023-01-22T06:33:20.481Z,3.06
2023-01-22T06:34:23.387Z,3.07
2023-01-22T06:35:27.001Z,3.05
2023-01-22T06:36:30.221Z,3.04
2023-01-22T06:37:33.607Z,3.06
2023-01-22T06:38:39.176Z,3.14
2023-01-22T06:39:43.880Z,3.04
2023-01-22T06:40:58.209Z,3.02
2023-01-22T06:42:00.857Z,3.07
2023-01-22T06:43:10.683Z,3.06
2023-01-22T06:44:14.385Z,3.03
2023-01-22T06:45:17.965Z,3.07
2023-01-22T06:46:26.093Z,3.02
2023-01-22T06:47:51.816Z,3.04
2023-01-22T06:48:54.655Z,3.06
2023-01-22T06:49:58.347Z,3.12
2023-01-22T06:51:01.523Z,3.15
2023-01-22T06:52:07.390Z,3.15
2023-01-22T06:53:11.181Z,3.27
2023-01-22T06:54:13.738Z,3.18
2023-01-22T06:55:16.550Z,3.26
2023-01-22T06:56:19.039Z,3.27
2023-01-22T06:57:21.647Z,3.30
2023-01-22T06:58:24.130Z,3.33
2023-01-22T06:59:26.763Z,3.28
2023-01-22T07:00:29.616Z,3.22
2023-01-22T07:01:32.120Z,3.35
2023-01-22T07:02:34.912Z,3.33
2023-01-22T07:03:37.415Z,3.33
2023-01-22T07:04:39.805Z,3.38
2023-01-22T07:05:42.620Z,3.40
2023-01-22T07:06:45.742Z,3.50
2023-01-22T07:07:48.669Z,3.38
2023-01-22T07:08:52.697Z,3.40
2023-01-22T07:09:56.545Z,3.41
2023-01-22T07:11:00.135Z,3.40
2023-01-22T07:12:02.616Z,3.48
2023-01-22T07:13:05.167Z,3.49
2023-01-22T07:14:07.753Z,3.49
2023-01-22T07:15:10.437Z,3.50
2023-01-22T07:16:13.027Z,3.52
2023-01-22T07:17:15.486Z,3.53
2023-01-22T07:18:22.097Z,3.49
2023-01-22T07:19:24.699Z,3.56
2023-01-22T07:20:27.330Z,3.51
2023-01-22T07:21:29.910Z,3.61
2023-01-22T07:22:35.395Z,3.58
2023-01-22T07:23:38.992Z,3.70
2023-01-22T07:24:41.568Z,3.77
2023-01-22T07:25:46.173Z,3.77
2023-01-22T07:26:49.563Z,3.82
2023-01-22T07:27:52.114Z,3.79
2023-01-22T07:28:54.947Z,3.83
2023-01-22T07:29:57.413Z,3.79
2023-01-22T07:31:00.081Z,3.79
2023-01-22T07:32:02.875Z,3.82
2023-01-22T07:33:05.318Z,3.82
2023-01-22T07:34:08.018Z,3.86
2023-01-22T07:35:10.497Z,3.87
2023-01-22T07:36:13.105Z,3.87
2023-01-22T07:37:15.820Z,3.98
2023-01-22T07:38:18.316Z,3.99
2023-01-22T07:39:20.917Z,3.96
2023-01-22T07:40:24.496Z,3.99
2023-01-22T07:41:27.053Z,4.05
2023-01-22T07:42:29.583Z,4.14
2023-01-22T07:43:32.712Z,4.12
2023-01-22T07:44:37.164Z,4.00
2023-01-22T07:45:39.710Z,4.03
2023-01-22T07:46:49.718Z,4.07
2023-01-22T07:47:59.626Z,4.19
2023-01-22T07:49:02.262Z,4.17
2023-01-22T07:50:05.215Z,4.20
2023-01-22T07:51:08.437Z,4.19
2023-01-22T07:52:11.085Z,4.18
2023-01-22T07:53:13.644Z,4.25
2023-01-22T07:54:18.486Z,4.36
2023-01-22T07:55:21.734Z,4.36
2023-01-22T07:56:24.556Z,4.35
2023-01-22T07:57:27.271Z,4.37
2023-01-22T07:58:32.303Z,4.45
2023-01-22T07:59:35.526Z,4.45
2023-01-22T08:00:38.280Z,4.36
2023-01-22T08:01:41.053Z,4.50
2023-01-22T08:02:43.688Z,4.58
2023-01-22T08:03:46.280Z,4.46
2023-01-22T08:04:48.658Z,4.64
2023-01-22T08:05:51.165Z,4.69
2023-01-22T08:06:53.737Z,4.65
2023-01-22T08:07:56.174Z,4.66
2023-01-22T08:08:59.693Z,4.65
2023-01-22T08:10:02.859Z,4.72
2023-01-22T08:11:08.495Z,4.72
2023-01-22T08:12:11.927Z,4.75
2023-01-22T08:13:14.642Z,4.70
2023-01-22T08:14:17.288Z,4.75
2023-01-22T08:15:19.974Z,4.76
2023-01-22T08:16:22.900Z,4.78
2023-01-22T08:17:25.501Z,4.72
2023-01-22T08:18:28.266Z,4.71
2023-01-22T08:19:31.170Z,4.72
2023-01-22T08:20:33.950Z,4.72
2023-01-22T08:21:36.571Z,4.83
2023-01-22T08:22:39.112Z,4.84
2023-01-22T08:23:47.500Z,4.90
2023-01-22T08:24:51.562Z,5.04
2023-01-22T08:25:54.101Z,5.11
2023-01-22T08:26:56.470Z,5.14
2023-01-22T08:28:03.021Z,5.13
2023-01-22T08:29:07.693Z,5.15
2023-01-22T08:30:13.902Z,5.06
2023-01-22T08:31:27.407Z,5.09
2023-01-22T08:32:31.201Z,5.05
2023-01-22T08:33:34.140Z,4.97
2023-01-22T08:34:36.656Z,5.11
2023-01-22T08:35:39.974Z,4.99
2023-01-22T08:36:42.688Z,4.92
2023-01-22T08:37:45.332Z,4.98
2023-01-22T08:38:50.602Z,4.87
2023-01-22T08:39:53.240Z,4.87
2023-01-22T08:40:55.800Z,4.97
2023-01-22T08:41:59.076Z,4.97
2023-01-22T08:43:01.611Z,5.00
2023-01-22T08:44:04.075Z,4.93
2023-01-22T08:45:07.859Z,4.96
2023-01-22T08:46:10.382Z,5.12
2023-01-22T08:47:13.488Z,5.12
2023-01-22T08:48:16.836Z,5.23
2023-01-22T08:49:21.633Z,5.15
2023-01-22T08:50:24.370Z,5.30
2023-01-22T08:51:27.101Z,5.42
2023-01-22T08:52:29.775Z,5.42
2023-01-22T08:53:32.446Z,5.47
2023-01-22T08:54:35.012Z,5.35
2023-01-22T08:55:37.638Z,5.44
2023-01-22T08:56:40.080Z,5.39
2023-01-22T08:57:42.602Z,5.45
2023-01-22T08:58:49.338Z,5.52
2023-01-22T09:00:00.797Z,5.51
2023-01-22T09:01:03.994Z,5.53
2023-01-22T09:02:10.092Z,5.54
2023-01-22T09:03:13.313Z,5.46
2023-01-22T09:04:18.873Z,5.52
2023-01-22T09:05:21.463Z,5.57
2023-01-22T09:06:24.126Z,5.62
2023-01-22T09:07:29.205Z,5.86
2023-01-22T09:08:32.073Z,6.25
2023-01-22T09:09:35.483Z,6.99
2023-01-22T09:10:38.015Z,7.84
2023-01-22T09:11:41.104Z,8.12
2023-01-22T09:12:43.689Z,8.55
2023-01-22T09:13:46.233Z,8.39
2023-01-22T09:14:48.857Z,8.61
2023-01-22T09:15:51.393Z,8.59
2023-01-22T09:16:53.998Z,9.26
2023-01-22T09:17:56.949Z,8.97
2023-01-22T09:18:59.751Z,8.99
2023-01-22T09:20:02.255Z,9.36
2023-01-22T09:21:05.807Z,9.83
2023-01-22T09:22:08.273Z,9.91
2023-01-22T09:23:10.882Z,9.59
2023-01-22T09:24:13.583Z,10.07
2023-01-22T09:25:16.519Z,10.41
2023-01-22T09:26:19.118Z,10.28
2023-01-22T09:27:21.617Z,9.97
2023-01-22T09:28:26.731Z,10.64
2023-01-22T09:29:29.310Z,10.46
2023-01-22T09:30:32.487Z,10.76
2023-01-22T09:31:37.998Z,10.08
2023-01-22T09:32:41.496Z,9.64
2023-01-22T09:33:44.517Z,9.22
2023-01-22T09:34:47.018Z,8.65
2023-01-22T09:35:49.454Z,8.52
2023-01-22T09:36:52.028Z,7.53
2023-01-22T09:37:55.282Z,7.78
2023-01-22T09:38:57.871Z,7.23
2023-01-22T09:40:00.430Z,7.14
2023-01-22T09:41:11.840Z,6.95
2023-01-22T09:42:31.489Z,6.77
2023-01-22T09:43:39.691Z,6.90
2023-01-22T09:44:46.602Z,6.74
2023-01-22T09:45:55.731Z,6.51
2023-01-22T09:47:41.667Z,6.68
2023-01-22T09:48:48.206Z,6.63
2023-01-22T09:50:04.427Z,6.58
2023-01-22T09:51:07.200Z,6.76
2023-01-22T09:52:11.193Z,6.67
2023-01-22T09:53:17.022Z,6.74
2023-01-22T09:54:19.792Z,6.78
2023-01-22T09:55:24.880Z,6.68
2023-01-22T09:56:43.715Z,6.83
2023-01-22T09:57:52.213Z,6.69
2023-01-22T09:58:58.430Z,6.82
2023-01-22T10:00:01.386Z,6.83
2023-01-22T10:01:14.842Z,6.89
2023-01-22T10:02:23.503Z,7.18
2023-01-22T10:03:40.636Z,7.83
2023-01-22T10:04:46.823Z,8.85
2023-01-22T10:05:56.595Z,9.43
2023-01-22T10:07:02.150Z,9.33
2023-01-22T10:08:13.674Z,8.71
2023-01-22T10:09:19.066Z,8.54
2023-01-22T10:10:27.017Z,8.24
2023-01-22T10:11:29.625Z,8.01
2023-01-22T10:12:33.065Z,8.15
2023-01-22T10:13:37.641Z,8.00
2023-01-22T10:14:45.031Z,7.81
2023-01-22T10:15:49.306Z,7.53
2023-01-22T10:16:51.824Z,7.44
2023-01-22T10:17:57.573Z,7.33
2023-01-22T10:19:42.933Z,7.25
2023-01-22T10:20:47.914Z,7.34
2023-01-22T10:22:09.759Z,7.44
2023-01-22T10:23:19.402Z,7.62
2023-01-22T10:24:22.103Z,7.95
2023-01-22T10:25:28.209Z,8.96
2023-01-22T10:26:56.363Z,9.95
2023-01-22T10:28:02.567Z,10.67
2023-01-22T10:29:21.293Z,11.17
2023-01-22T10:30:28.185Z,11.24
2023-01-22T10:31:36.504Z,11.01
2023-01-22T10:32:39.100Z,11.36
2023-01-22T10:33:44.792Z,11.78
2023-01-22T10:35:04.470Z,11.93
2023-01-22T10:36:15.554Z,11.48
2023-01-22T10:37:19.720Z,11.58
2023-01-22T10:38:28.423Z,12.45
2023-01-22T10:39:45.306Z,12.52
2023-01-22T10:40:53.831Z,12.22
2023-01-22T10:42:02.502Z,12.37
2023-01-22T10:43:15.495Z,12.02
2023-01-22T10:44:20.071Z,12.53
2023-01-22T10:45:24.301Z,12.40
2023-01-22T10:46:26.759Z,12.63
2023-01-22T10:47:29.401Z,12.41
2023-01-22T10:48:37.274Z,12.62
2023-01-22T10:49:42.186Z,12.78
2023-01-22T10:50:45.629Z,12.75
2023-01-22T10:51:53.893Z,12.64
2023-01-22T10:52:58.750Z,12.62
2023-01-22T10:54:01.821Z,12.94
2023-01-22T10:55:05.324Z,12.76
2023-01-22T10:56:12.755Z,13.05
2023-01-22T10:57:21.252Z,13.15
2023-01-22T10:58:26.543Z,12.04
2023-01-22T10:59:31.019Z,11.68
2023-01-22T11:00:50.960Z,12.54
2023-01-22T11:02:13.177Z,12.96
2023-01-22T11:03:24.120Z,13.22
2023-01-22T11:04:33.127Z,12.95
2023-01-22T11:05:37.279Z,12.84
2023-01-22T11:06:50.474Z,13.23
2023-01-22T11:07:58.643Z,12.95
2023-01-22T11:09:33.185Z,12.71
2023-01-22T11:10:56.903Z,12.64
2023-01-22T11:12:24.675Z,12.54
2023-01-22T11:13:47.916Z,12.98
2023-01-22T11:15:02.751Z,12.93
2023-01-22T11:16:17.769Z,12.83
2023-01-22T11:17:27.101Z,12.74
2023-01-22T11:18:35.667Z,12.40
2023-01-22T11:19:46.414Z,12.32
2023-01-22T11:20:57.737Z,12.67
2023-01-22T11:22:01.321Z,13.22
2023-01-22T11:23:09.501Z,13.14
2023-01-22T11:24:16.248Z,12.95
2023-01-22T11:25:18.955Z,12.87
2023-01-22T11:26:37.321Z,13.07
2023-01-22T11:28:00.151Z,12.39
2023-01-22T11:29:39.323Z,12.88
2023-01-22T11:30:59.544Z,12.54
2023-01-22T11:32:20.818Z,12.98
2023-01-22T11:33:26.456Z,13.01
2023-01-22T11:34:53.567Z,12.95
2023-01-22T11:36:22.522Z,13.18
2023-01-22T11:37:40.076Z,12.96
2023-01-22T11:39:09.350Z,13.26
2023-01-22T11:40:27.815Z,12.51
2023-01-22T11:41:59.171Z,13.22
2023-01-22T11:43:20.885Z,13.30
2023-01-22T11:44:45.183Z,12.93
2023-01-22T11:46:20.205Z,12.64
2023-01-22T11:47:36.769Z,12.74
2023-01-22T11:49:04.887Z,13.45
2023-01-22T11:50:33.586Z,12.90
2023-01-22T11:51:48.748Z,13.04
2023-01-22T11:53:46.875Z,13.50
2023-01-22T11:55:09.112Z,13.59
2023-01-22T11:56:30.148Z,13.40
2023-01-22T11:57:32.854Z,13.40
2023-01-22T11:58:52.305Z,12.70
2023-01-22T12:00:07.021Z,13.18
2023-01-22T12:01:57.603Z,12.89
2023-01-22T12:03:15.381Z,12.62
2023-01-22T12:04:36.674Z,12.70
2023-01-22T12:05:59.027Z,13.57
2023-01-22T12:07:33.145Z,13.39
2023-01-22T12:08:44.895Z,12.24
2023-01-22T12:10:04.988Z,12.46
2023-01-22T12:11:21.388Z,12.73
2023-01-22T12:12:46.135Z,13.05
2023-01-22T12:13:57.294Z,12.88
2023-01-22T12:15:41.043Z,13.30
2023-01-22T12:16:54.717Z,12.61
2023-01-22T12:18:44.498Z,13.01
2023-01-22T12:19:50.186Z,12.95
2023-01-22T12:21:20.965Z,12.62
2023-01-22T12:22:38.758Z,12.65
2023-01-22T12:23:44.923Z,12.77
2023-01-22T12:24:59.869Z,13.47
2023-01-22T12:26:17.617Z,13.47
2023-01-22T12:27:29.461Z,13.49
2023-01-22T12:28:50.525Z,13.33
2023-01-22T12:30:01.820Z,13.14
2023-01-22T12:31:26.403Z,12.83
2023-01-22T12:32:36.246Z,13.26
2023-01-22T12:33:42.074Z,13.01
2023-01-22T12:34:51.851Z,12.33
2023-01-22T12:35:58.296Z,12.42
2023-01-22T12:37:04.602Z,12.33
2023-01-22T12:38:39.370Z,12.83
2023-01-22T12:40:22.281Z,13.08
2023-01-22T12:41:33.079Z,13.05
2023-01-22T12:42:46.159Z,12.91
2023-01-22T12:43:54.435Z,12.80
2023-01-22T12:45:18.145Z,12.77
2023-01-22T12:46:27.030Z,13.07
2023-01-22T12:47:45.050Z,12.98
2023-01-22T12:48:50.584Z,13.37
2023-01-22T12:49:53.595Z,12.94
2023-01-22T12:50:58.124Z,13.03
2023-01-22T12:52:00.902Z,12.62
2023-01-22T12:53:25.386Z,13.32
2023-01-22T12:54:28.183Z,12.86
2023-01-22T12:55:42.586Z,13.16
2023-01-22T12:56:47.809Z,13.10
2023-01-22T12:57:50.807Z,13.11
2023-01-22T12:58:57.440Z,13.47
2023-01-22T13:00:12.999Z,13.04
2023-01-22T13:01:25.572Z,12.91
2023-01-22T13:02:36.345Z,13.10
2023-01-22T13:03:41.933Z,12.99
2023-01-22T13:04:45.718Z,13.17
2023-01-22T13:05:52.108Z,12.75
2023-01-22T13:07:18.714Z,13.15
2023-01-22T13:08:34.343Z,12.57
2023-01-22T13:09:37.476Z,13.22
2023-01-22T13:10:42.521Z,12.66
2023-01-22T13:11:45.088Z,12.59
2023-01-22T13:12:50.296Z,12.79
2023-01-22T13:14:14.853Z,12.93
2023-01-22T13:15:21.932Z,12.80
2023-01-22T13:16:34.177Z,12.80
2023-01-22T13:17:38.034Z,12.42
2023-01-22T13:18:42.188Z,13.05
2023-01-22T13:19:49.876Z,13.05
2023-01-22T13:20:56.866Z,13.28
2023-01-22T13:22:01.054Z,13.01
2023-01-22T13:23:07.107Z,12.91
2023-01-22T13:24:23.594Z,12.71
2023-01-22T13:25:28.063Z,11.81
2023-01-22T13:26:36.181Z,11.53
2023-01-22T13:27:39.029Z,11.18
2023-01-22T13:28:49.838Z,10.62
2023-01-22T13:29:53.120Z,10.17
2023-01-22T13:31:05.749Z,9.46
2023-01-22T13:32:23.117Z,9.28
2023-01-22T13:33:26.296Z,9.11
2023-01-22T13:34:29.344Z,9.35
2023-01-22T13:35:32.704Z,9.52
2023-01-22T13:36:44.263Z,9.49
2023-01-22T13:37:51.648Z,9.77
2023-01-22T13:38:57.570Z,9.73
2023-01-22T13:40:14.518Z,9.88
2023-01-22T13:41:43.698Z,10.58
2023-01-22T13:42:47.287Z,10.61
2023-01-22T13:43:50.507Z,11.20
2023-01-22T13:44:53.830Z,10.97
2023-01-22T13:45:58.935Z,10.90
2023-01-22T13:47:03.669Z,10.16
2023-01-22T13:48:07.339Z,10.53
2023-01-22T13:49:20.744Z,10.65
2023-01-22T13:50:31.996Z,10.96
2023-01-22T13:51:35.466Z,11.29
2023-01-22T13:52:43.009Z,11.40
2023-01-22T13:53:54.719Z,11.04
2023-01-22T13:55:16.905Z,10.91
2023-01-22T13:56:22.735Z,10.61
2023-01-22T13:57:26.200Z,10.84
2023-01-22T13:58:49.547Z,10.46
2023-01-22T14:00:01.364Z,9.76
2023-01-22T14:01:10.257Z,9.70
2023-01-22T14:02:33.538Z,9.12
2023-01-22T14:03:39.878Z,9.00
2023-01-22T14:04:42.931Z,8.79
2023-01-22T14:05:45.780Z,8.41
2023-01-22T14:06:49.912Z,8.41
2023-01-22T14:08:05.041Z,8.33
2023-01-22T14:09:09.529Z,8.20
2023-01-22T14:10:24.928Z,7.92
2023-01-22T14:11:41.120Z,8.00
2023-01-22T14:12:44.051Z,7.58
2023-01-22T14:13:54.571Z,7.47
2023-01-22T14:14:58.010Z,7.40
2023-01-22T14:16:08.314Z,7.30
2023-01-22T14:17:34.766Z,7.49
2023-01-22T14:18:39.045Z,7.21
2023-01-22T14:19:42.651Z,7.21
2023-01-22T14:20:50.787Z,7.20
2023-01-22T14:21:54.878Z,7.25
2023-01-22T14:22:58.088Z,7.01
2023-01-22T14:24:04.737Z,6.97
2023-01-22T14:25:09.151Z,6.95
2023-01-22T14:26:12.964Z,6.92
2023-01-22T14:27:18.034Z,6.88
2023-01-22T14:28:24.200Z,6.72
2023-01-22T14:29:27.647Z,6.72
2023-01-22T14:30:32.219Z,6.72
2023-01-22T14:31:35.441Z,6.63
2023-01-22T14:32:38.523Z,6.77
2023-01-22T14:33:43.492Z,6.74
2023-01-22T14:34:46.868Z,6.73
2023-01-22T14:35:50.446Z,6.72
2023-01-22T14:36:55.634Z,6.86
2023-01-22T14:37:59.884Z,7.08
2023-01-22T14:39:06.407Z,7.00
2023-01-22T14:40:13.959Z,6.99
2023-01-22T14:41:17.483Z,7.15
2023-01-22T14:42:20.923Z,7.32
2023-01-22T14:43:23.963Z,7.31
2023-01-22T14:44:27.373Z,7.40
2023-01-22T14:45:30.598Z,7.23
2023-01-22T14:46:34.155Z,7.10
2023-01-22T14:47:37.853Z,7.04